Country
Station

 

Weather  for  Trenton, Mercer County Airport  -  United States    United States

  
24 °C (75 °F)
    
 
 

Current METAR for Trenton, Mercer County Airport is :

KTTN 211753Z 00000KT 10SM CLR 24/11 A3017 RMK AO2 SLP209 T02440106 10244 20178 58013

 

This is a report for Trenton, Mercer County Airport - United States.
 
The report was made 29 minutes ago, at 17:53 UTC .
The wind was calm.
 
The temperature was 24 °C (75 °F), with a dew-point at 11 °C (52 °F).
The temperature felt like 26 °C (78 °F).
 
The atmospheric pressure was 1022 hPa (30.17 inHg).
The relative humidity was 44.0%.
 
The sky was clear.
 
The overall visibility was 16.1 kilometers (10.0 miles).
 

 
 
 
 

Country :   A   B   C   D   E   F   G   H   I   J   K   L   M   N   O   P   Q   R   S   T   U   V   W   Y   Z

 

Site Info  |  Disclaimer  |  Credits  |  Privacy
Contact us  |  Add to favorites
© 2013-2018 METARs - All rights reserved